sensor_id;sensor_type;location;lat;lon;timestamp;P1;durP1;ratioP1;P2;durP2;ratioP2
21636;SDS011;10980;49.596;6.142;2023-03-21T00:02:26;10.80;;;3.67;;
21636;SDS011;10980;49.596;6.142;2023-03-21T00:05:48;13.83;;;3.80;;
21636;SDS011;10980;49.596;6.142;2023-03-21T00:09:15;16.27;;;4.90;;
21636;SDS011;10980;49.596;6.142;2023-03-21T00:12:39;10.37;;;3.73;;
21636;SDS011;10980;49.596;6.142;2023-03-21T00:16:08;14.63;;;4.80;;
21636;SDS011;10980;49.596;6.142;2023-03-21T00:19:44;13.30;;;5.50;;
21636;SDS011;10980;49.596;6.142;2023-03-21T00:23:07;16.70;;;5.97;;
21636;SDS011;10980;49.596;6.142;2023-03-21T00:26:29;12.30;;;4.77;;
21636;SDS011;10980;49.596;6.142;2023-03-21T00:29:52;9.97;;;4.47;;
21636;SDS011;10980;49.596;6.142;2023-03-21T00:33:14;10.47;;;5.07;;
21636;SDS011;10980;49.596;6.142;2023-03-21T00:36:51;9.73;;;4.60;;
21636;SDS011;10980;49.596;6.142;2023-03-21T00:40:14;12.60;;;4.97;;
21636;SDS011;10980;49.596;6.142;2023-03-21T00:43:52;14.50;;;6.10;;
21636;SDS011;10980;49.596;6.142;2023-03-21T00:47:21;12.00;;;4.83;;
21636;SDS011;10980;49.596;6.142;2023-03-21T00:50:47;10.37;;;5.67;;
21636;SDS011;10980;49.596;6.142;2023-03-21T00:54:13;16.73;;;6.23;;
21636;SDS011;10980;49.596;6.142;2023-03-21T00:57:36;11.07;;;5.17;;
21636;SDS011;10980;49.596;6.142;2023-03-21T01:01:00;13.07;;;5.97;;
21636;SDS011;10980;49.596;6.142;2023-03-21T01:04:23;11.87;;;5.70;;
21636;SDS011;10980;49.596;6.142;2023-03-21T01:07:46;10.10;;;4.97;;
21636;SDS011;10980;49.596;6.142;2023-03-21T01:11:09;14.53;;;5.43;;
21636;SDS011;10980;49.596;6.142;2023-03-21T01:14:38;12.73;;;5.30;;
21636;SDS011;10980;49.596;6.142;2023-03-21T01:18:00;16.13;;;5.60;;
21636;SDS011;10980;49.596;6.142;2023-03-21T01:21:23;11.80;;;5.67;;
21636;SDS011;10980;49.596;6.142;2023-03-21T01:24:46;19.13;;;6.73;;
21636;SDS011;10980;49.596;6.142;2023-03-21T01:28:29;13.00;;;6.20;;
21636;SDS011;10980;49.596;6.142;2023-03-21T01:31:51;13.07;;;5.47;;
21636;SDS011;10980;49.596;6.142;2023-03-21T01:35:21;15.03;;;5.70;;
21636;SDS011;10980;49.596;6.142;2023-03-21T01:38:44;15.07;;;6.27;;
21636;SDS011;10980;49.596;6.142;2023-03-21T01:42:09;10.53;;;5.70;;
21636;SDS011;10980;49.596;6.142;2023-03-21T01:50:30;19.23;;;6.17;;
21636;SDS011;10980;49.596;6.142;2023-03-21T01:53:58;20.70;;;7.10;;
21636;SDS011;10980;49.596;6.142;2023-03-21T01:57:32;19.03;;;7.37;;
21636;SDS011;10980;49.596;6.142;2023-03-21T02:01:32;16.53;;;5.97;;
21636;SDS011;10980;49.596;6.142;2023-03-21T02:04:57;13.37;;;6.30;;
21636;SDS011;10980;49.596;6.142;2023-03-21T02:08:28;12.83;;;6.13;;
21636;SDS011;10980;49.596;6.142;2023-03-21T02:12:13;15.30;;;7.23;;
21636;SDS011;10980;49.596;6.142;2023-03-21T02:15:38;15.40;;;6.80;;
21636;SDS011;10980;49.596;6.142;2023-03-21T02:19:17;16.07;;;7.03;;
21636;SDS011;10980;49.596;6.142;2023-03-21T02:27:28;14.07;;;6.73;;
21636;SDS011;10980;49.596;6.142;2023-03-21T02:34:52;17.13;;;7.33;;
21636;SDS011;10980;49.596;6.142;2023-03-21T02:42:23;13.00;;;6.60;;
21636;SDS011;10980;49.596;6.142;2023-03-21T02:53:19;19.23;;;7.07;;
21636;SDS011;10980;49.596;6.142;2023-03-21T02:56:47;14.33;;;7.07;;
21636;SDS011;10980;49.596;6.142;2023-03-21T03:00:15;13.63;;;6.63;;
21636;SDS011;10980;49.596;6.142;2023-03-21T03:03:43;13.57;;;6.70;;
21636;SDS011;10980;49.596;6.142;2023-03-21T03:07:27;15.83;;;7.33;;
21636;SDS011;10980;49.596;6.142;2023-03-21T03:18:52;15.00;;;7.13;;
21636;SDS011;10980;49.596;6.142;2023-03-21T03:22:22;15.50;;;6.73;;
21636;SDS011;10980;49.596;6.142;2023-03-21T03:26:36;15.43;;;7.43;;
21636;SDS011;10980;49.596;6.142;2023-03-21T03:30:00;13.07;;;6.20;;
21636;SDS011;10980;49.596;6.142;2023-03-21T03:33:25;12.83;;;6.50;;
21636;SDS011;10980;49.596;6.142;2023-03-21T03:36:53;15.90;;;6.77;;
21636;SDS011;10980;49.596;6.142;2023-03-21T03:40:35;16.17;;;6.10;;
21636;SDS011;10980;49.596;6.142;2023-03-21T03:44:20;15.70;;;6.67;;
21636;SDS011;10980;49.596;6.142;2023-03-21T03:47:59;16.50;;;6.93;;
21636;SDS011;10980;49.596;6.142;2023-03-21T03:51:52;15.80;;;7.10;;
21636;SDS011;10980;49.596;6.142;2023-03-21T03:55:44;17.53;;;7.17;;
21636;SDS011;10980;49.596;6.142;2023-03-21T03:59:12;17.10;;;7.70;;
21636;SDS011;10980;49.596;6.142;2023-03-21T04:02:49;14.30;;;7.03;;
21636;SDS011;10980;49.596;6.142;2023-03-21T04:06:17;15.20;;;7.60;;
21636;SDS011;10980;49.596;6.142;2023-03-21T04:09:44;17.67;;;7.40;;
21636;SDS011;10980;49.596;6.142;2023-03-21T04:13:10;16.60;;;7.80;;
21636;SDS011;10980;49.596;6.142;2023-03-21T04:16:56;16.83;;;7.40;;
21636;SDS011;10980;49.596;6.142;2023-03-21T04:20:18;18.93;;;7.97;;
21636;SDS011;10980;49.596;6.142;2023-03-21T04:23:57;16.43;;;8.07;;
21636;SDS011;10980;49.596;6.142;2023-03-21T04:27:19;16.47;;;8.07;;
21636;SDS011;10980;49.596;6.142;2023-03-21T04:31:14;17.03;;;8.00;;
21636;SDS011;10980;49.596;6.142;2023-03-21T04:34:53;16.67;;;7.87;;
21636;SDS011;10980;49.596;6.142;2023-03-21T04:38:19;14.60;;;8.00;;
21636;SDS011;10980;49.596;6.142;2023-03-21T04:41:43;16.33;;;7.37;;
21636;SDS011;10980;49.596;6.142;2023-03-21T04:45:08;15.10;;;7.00;;
21636;SDS011;10980;49.596;6.142;2023-03-21T04:48:32;18.50;;;8.30;;
21636;SDS011;10980;49.596;6.142;2023-03-21T04:51:55;20.43;;;7.97;;
21636;SDS011;10980;49.596;6.142;2023-03-21T04:55:19;20.87;;;8.13;;
21636;SDS011;10980;49.596;6.142;2023-03-21T04:58:43;17.20;;;7.30;;
21636;SDS011;10980;49.596;6.142;2023-03-21T05:02:06;17.00;;;7.17;;
21636;SDS011;10980;49.596;6.142;2023-03-21T05:05:31;10.80;;;6.60;;
21636;SDS011;10980;49.596;6.142;2023-03-21T05:08:55;14.87;;;7.17;;
21636;SDS011;10980;49.596;6.142;2023-03-21T05:12:27;11.43;;;6.13;;
21636;SDS011;10980;49.596;6.142;2023-03-21T05:15:49;17.63;;;7.33;;
21636;SDS011;10980;49.596;6.142;2023-03-21T05:19:11;17.47;;;6.80;;
21636;SDS011;10980;49.596;6.142;2023-03-21T05:22:36;20.70;;;7.90;;
21636;SDS011;10980;49.596;6.142;2023-03-21T05:26:04;14.33;;;7.33;;
21636;SDS011;10980;49.596;6.142;2023-03-21T05:29:42;17.00;;;7.23;;
21636;SDS011;10980;49.596;6.142;2023-03-21T05:33:07;14.50;;;7.10;;
21636;SDS011;10980;49.596;6.142;2023-03-21T05:36:31;14.83;;;6.50;;
21636;SDS011;10980;49.596;6.142;2023-03-21T05:39:58;17.47;;;7.67;;
21636;SDS011;10980;49.596;6.142;2023-03-21T05:43:24;16.63;;;6.93;;
21636;SDS011;10980;49.596;6.142;2023-03-21T05:46:47;15.57;;;6.93;;
21636;SDS011;10980;49.596;6.142;2023-03-21T05:50:10;13.57;;;6.60;;
21636;SDS011;10980;49.596;6.142;2023-03-21T05:53:36;17.63;;;7.30;;
21636;SDS011;10980;49.596;6.142;2023-03-21T05:56:58;14.50;;;7.30;;
21636;SDS011;10980;49.596;6.142;2023-03-21T06:00:43;13.53;;;6.90;;
21636;SDS011;10980;49.596;6.142;2023-03-21T06:04:15;18.20;;;6.63;;
21636;SDS011;10980;49.596;6.142;2023-03-21T06:07:37;14.30;;;7.00;;
21636;SDS011;10980;49.596;6.142;2023-03-21T06:11:01;18.07;;;6.97;;
21636;SDS011;10980;49.596;6.142;2023-03-21T06:14:29;13.17;;;6.33;;
21636;SDS011;10980;49.596;6.142;2023-03-21T06:18:08;20.43;;;7.37;;
21636;SDS011;10980;49.596;6.142;2023-03-21T06:21:34;13.97;;;7.33;;
21636;SDS011;10980;49.596;6.142;2023-03-21T06:24:57;22.23;;;8.53;;
21636;SDS011;10980;49.596;6.142;2023-03-21T06:28:20;14.37;;;6.80;;
21636;SDS011;10980;49.596;6.142;2023-03-21T06:31:43;15.10;;;7.23;;
21636;SDS011;10980;49.596;6.142;2023-03-21T06:35:05;12.43;;;6.50;;
21636;SDS011;10980;49.596;6.142;2023-03-21T06:38:29;12.70;;;6.47;;
21636;SDS011;10980;49.596;6.142;2023-03-21T06:41:52;18.50;;;7.73;;
21636;SDS011;10980;49.596;6.142;2023-03-21T06:45:15;12.13;;;5.97;;
21636;SDS011;10980;49.596;6.142;2023-03-21T06:48:38;14.83;;;6.43;;
21636;SDS011;10980;49.596;6.142;2023-03-21T06:52:06;22.43;;;6.73;;
21636;SDS011;10980;49.596;6.142;2023-03-21T06:55:28;11.80;;;6.37;;
21636;SDS011;10980;49.596;6.142;2023-03-21T06:58:53;16.77;;;6.63;;
21636;SDS011;10980;49.596;6.142;2023-03-21T07:02:34;13.80;;;6.60;;
21636;SDS011;10980;49.596;6.142;2023-03-21T07:06:06;16.37;;;7.10;;
21636;SDS011;10980;49.596;6.142;2023-03-21T07:09:34;16.77;;;6.60;;
21636;SDS011;10980;49.596;6.142;2023-03-21T07:13:00;15.33;;;6.70;;
21636;SDS011;10980;49.596;6.142;2023-03-21T07:20:03;12.67;;;6.83;;
21636;SDS011;10980;49.596;6.142;2023-03-21T07:23:29;16.50;;;6.87;;
21636;SDS011;10980;49.596;6.142;2023-03-21T07:26:51;11.77;;;6.37;;
21636;SDS011;10980;49.596;6.142;2023-03-21T07:30:13;12.83;;;5.80;;
21636;SDS011;10980;49.596;6.142;2023-03-21T07:33:36;11.87;;;6.10;;
21636;SDS011;10980;49.596;6.142;2023-03-21T07:36:59;15.67;;;5.97;;
21636;SDS011;10980;49.596;6.142;2023-03-21T07:40:28;16.30;;;6.20;;
21636;SDS011;10980;49.596;6.142;2023-03-21T07:43:50;11.70;;;6.07;;
21636;SDS011;10980;49.596;6.142;2023-03-21T07:47:13;14.87;;;6.20;;
21636;SDS011;10980;49.596;6.142;2023-03-21T07:50:35;14.33;;;6.10;;
21636;SDS011;10980;49.596;6.142;2023-03-21T07:53:57;11.83;;;6.40;;
21636;SDS011;10980;49.596;6.142;2023-03-21T07:57:19;14.07;;;6.13;;
21636;SDS011;10980;49.596;6.142;2023-03-21T08:00:42;16.87;;;6.97;;
21636;SDS011;10980;49.596;6.142;2023-03-21T08:04:10;11.77;;;6.23;;
21636;SDS011;10980;49.596;6.142;2023-03-21T08:07:33;10.77;;;6.17;;
21636;SDS011;10980;49.596;6.142;2023-03-21T08:10:56;14.20;;;6.37;;
21636;SDS011;10980;49.596;6.142;2023-03-21T08:14:19;12.60;;;5.80;;
21636;SDS011;10980;49.596;6.142;2023-03-21T08:17:43;16.63;;;6.60;;
21636;SDS011;10980;49.596;6.142;2023-03-21T08:21:08;10.27;;;5.45;;
21636;SDS011;10980;49.596;6.142;2023-03-21T08:24:31;13.68;;;6.28;;
21636;SDS011;10980;49.596;6.142;2023-03-21T08:27:54;12.65;;;5.82;;
21636;SDS011;10980;49.596;6.142;2023-03-21T08:31:16;11.95;;;6.18;;
21636;SDS011;10980;49.596;6.142;2023-03-21T08:34:38;13.32;;;5.55;;
21636;SDS011;10980;49.596;6.142;2023-03-21T08:38:02;12.45;;;6.40;;
21636;SDS011;10980;49.596;6.142;2023-03-21T08:41:28;12.55;;;5.72;;
21636;SDS011;10980;49.596;6.142;2023-03-21T08:44:50;11.90;;;5.57;;
21636;SDS011;10980;49.596;6.142;2023-03-21T08:48:13;8.20;;;4.78;;
21636;SDS011;10980;49.596;6.142;2023-03-21T08:51:34;9.60;;;4.90;;
21636;SDS011;10980;49.596;6.142;2023-03-21T08:54:58;10.00;;;5.32;;
21636;SDS011;10980;49.596;6.142;2023-03-21T08:58:22;10.13;;;5.45;;
21636;SDS011;10980;49.596;6.142;2023-03-21T09:01:45;11.73;;;6.00;;
21636;SDS011;10980;49.596;6.142;2023-03-21T09:05:09;10.73;;;5.60;;
21636;SDS011;10980;49.596;6.142;2023-03-21T09:08:32;16.35;;;5.68;;
21636;SDS011;10980;49.596;6.142;2023-03-21T09:12:02;13.52;;;5.10;;
21636;SDS011;10980;49.596;6.142;2023-03-21T09:15:41;11.65;;;6.53;;
21636;SDS011;10980;49.596;6.142;2023-03-21T09:19:03;14.57;;;6.00;;
21636;SDS011;10980;49.596;6.142;2023-03-21T09:22:28;15.40;;;6.00;;
21636;SDS011;10980;49.596;6.142;2023-03-21T09:25:59;15.73;;;6.35;;
21636;SDS011;10980;49.596;6.142;2023-03-21T09:29:25;12.68;;;5.95;;
21636;SDS011;10980;49.596;6.142;2023-03-21T09:32:47;10.32;;;5.57;;
21636;SDS011;10980;49.596;6.142;2023-03-21T09:36:18;12.45;;;5.90;;
21636;SDS011;10980;49.596;6.142;2023-03-21T09:39:42;14.88;;;5.35;;
21636;SDS011;10980;49.596;6.142;2023-03-21T09:43:11;16.80;;;6.38;;
21636;SDS011;10980;49.596;6.142;2023-03-21T09:50:35;12.98;;;5.85;;
21636;SDS011;10980;49.596;6.142;2023-03-21T09:54:12;18.70;;;6.60;;
21636;SDS011;10980;49.596;6.142;2023-03-21T09:57:46;14.25;;;7.07;;
21636;SDS011;10980;49.596;6.142;2023-03-21T10:01:26;15.77;;;6.35;;
21636;SDS011;10980;49.596;6.142;2023-03-21T10:05:00;13.32;;;6.22;;
21636;SDS011;10980;49.596;6.142;2023-03-21T10:08:36;14.10;;;6.10;;
21636;SDS011;10980;49.596;6.142;2023-03-21T10:12:04;15.18;;;6.80;;
21636;SDS011;10980;49.596;6.142;2023-03-21T10:15:35;16.40;;;6.60;;
21636;SDS011;10980;49.596;6.142;2023-03-21T10:18:58;9.85;;;5.57;;
21636;SDS011;10980;49.596;6.142;2023-03-21T10:22:24;19.83;;;6.10;;
21636;SDS011;10980;49.596;6.142;2023-03-21T10:25:50;11.18;;;5.72;;
21636;SDS011;10980;49.596;6.142;2023-03-21T10:29:20;11.82;;;6.32;;
21636;SDS011;10980;49.596;6.142;2023-03-21T10:33:06;12.43;;;5.80;;
21636;SDS011;10980;49.596;6.142;2023-03-21T10:36:36;14.43;;;6.78;;
21636;SDS011;10980;49.596;6.142;2023-03-21T10:39:59;16.13;;;6.05;;
21636;SDS011;10980;49.596;6.142;2023-03-21T10:43:34;12.50;;;6.13;;
21636;SDS011;10980;49.596;6.142;2023-03-21T10:47:09;11.63;;;6.03;;
21636;SDS011;10980;49.596;6.142;2023-03-21T10:50:31;15.55;;;6.38;;
21636;SDS011;10980;49.596;6.142;2023-03-21T10:53:58;14.52;;;6.75;;
21636;SDS011;10980;49.596;6.142;2023-03-21T10:57:29;13.40;;;6.65;;
21636;SDS011;10980;49.596;6.142;2023-03-21T11:00:55;13.82;;;6.90;;
21636;SDS011;10980;49.596;6.142;2023-03-21T11:04:26;14.07;;;6.55;;
21636;SDS011;10980;49.596;6.142;2023-03-21T11:11:49;16.77;;;6.35;;
21636;SDS011;10980;49.596;6.142;2023-03-21T11:19:30;17.33;;;5.90;;
21636;SDS011;10980;49.596;6.142;2023-03-21T11:23:00;10.50;;;6.07;;
21636;SDS011;10980;49.596;6.142;2023-03-21T11:26:33;14.27;;;5.68;;
21636;SDS011;10980;49.596;6.142;2023-03-21T11:29:58;10.40;;;6.00;;
21636;SDS011;10980;49.596;6.142;2023-03-21T11:33:24;14.93;;;5.72;;
21636;SDS011;10980;49.596;6.142;2023-03-21T11:37:15;16.42;;;6.43;;
21636;SDS011;10980;49.596;6.142;2023-03-21T11:40:56;13.05;;;5.43;;
21636;SDS011;10980;49.596;6.142;2023-03-21T11:44:41;11.80;;;6.18;;
21636;SDS011;10980;49.596;6.142;2023-03-21T11:48:10;13.60;;;6.65;;
21636;SDS011;10980;49.596;6.142;2023-03-21T11:51:46;13.70;;;5.95;;
21636;SDS011;10980;49.596;6.142;2023-03-21T11:55:23;13.57;;;6.22;;
21636;SDS011;10980;49.596;6.142;2023-03-21T12:03:28;19.80;;;6.90;;
21636;SDS011;10980;49.596;6.142;2023-03-21T12:07:22;12.45;;;6.10;;
21636;SDS011;10980;49.596;6.142;2023-03-21T12:27:38;13.40;;;6.47;;
21636;SDS011;10980;49.596;6.142;2023-03-21T12:39:11;14.90;;;6.88;;
21636;SDS011;10980;49.596;6.142;2023-03-21T12:42:59;12.70;;;6.18;;
21636;SDS011;10980;49.596;6.142;2023-03-21T12:47:00;20.92;;;8.45;;
21636;SDS011;10980;49.596;6.142;2023-03-21T12:50:33;20.67;;;7.40;;
21636;SDS011;10980;49.596;6.142;2023-03-21T12:58:05;13.68;;;7.35;;
21636;SDS011;10980;49.596;6.142;2023-03-21T13:01:38;13.07;;;6.80;;
21636;SDS011;10980;49.596;6.142;2023-03-21T13:09:19;11.95;;;6.90;;
21636;SDS011;10980;49.596;6.142;2023-03-21T13:13:11;13.15;;;6.82;;
21636;SDS011;10980;49.596;6.142;2023-03-21T13:24:47;1017.95;;;755.25;;
21636;SDS011;10980;49.596;6.142;2023-03-21T13:28:21;370.27;;;265.98;;
21636;SDS011;10980;49.596;6.142;2023-03-21T13:31:50;346.77;;;261.00;;
21636;SDS011;10980;49.596;6.142;2023-03-21T13:35:21;64.60;;;41.28;;
21636;SDS011;10980;49.596;6.142;2023-03-21T13:38:58;87.30;;;53.00;;
21636;SDS011;10980;49.596;6.142;2023-03-21T13:42:29;14.07;;;8.00;;
21636;SDS011;10980;49.596;6.142;2023-03-21T13:57:47;8.43;;;3.67;;
21636;SDS011;10980;49.596;6.142;2023-03-21T14:05:16;7.50;;;3.15;;
21636;SDS011;10980;49.596;6.142;2023-03-21T14:08:43;7.45;;;3.60;;
21636;SDS011;10980;49.596;6.142;2023-03-21T14:12:34;9.00;;;3.40;;
21636;SDS011;10980;49.596;6.142;2023-03-21T14:16:12;5.20;;;3.17;;
21636;SDS011;10980;49.596;6.142;2023-03-21T14:19:37;6.97;;;3.17;;
21636;SDS011;10980;49.596;6.142;2023-03-21T14:22:59;6.30;;;3.05;;
21636;SDS011;10980;49.596;6.142;2023-03-21T14:26:29;9.40;;;3.40;;
21636;SDS011;10980;49.596;6.142;2023-03-21T14:29:56;7.50;;;3.38;;
21636;SDS011;10980;49.596;6.142;2023-03-21T14:33:28;8.15;;;3.50;;
21636;SDS011;10980;49.596;6.142;2023-03-21T14:37:09;10.25;;;3.28;;
21636;SDS011;10980;49.596;6.142;2023-03-21T14:44:22;9.15;;;3.88;;
21636;SDS011;10980;49.596;6.142;2023-03-21T14:47:54;8.82;;;3.50;;
21636;SDS011;10980;49.596;6.142;2023-03-21T14:51:41;11.43;;;3.63;;
21636;SDS011;10980;49.596;6.142;2023-03-21T14:55:14;10.15;;;3.70;;
21636;SDS011;10980;49.596;6.142;2023-03-21T14:58:38;8.27;;;3.03;;
21636;SDS011;10980;49.596;6.142;2023-03-21T15:02:05;7.22;;;3.40;;
21636;SDS011;10980;49.596;6.142;2023-03-21T15:05:40;7.70;;;3.55;;
21636;SDS011;10980;49.596;6.142;2023-03-21T15:09:04;14.25;;;3.33;;
21636;SDS011;10980;49.596;6.142;2023-03-21T15:12:26;7.35;;;3.70;;
21636;SDS011;10980;49.596;6.142;2023-03-21T15:15:49;5.15;;;3.30;;
21636;SDS011;10980;49.596;6.142;2023-03-21T15:19:16;9.65;;;3.15;;
21636;SDS011;10980;49.596;6.142;2023-03-21T15:22:48;8.18;;;3.47;;
21636;SDS011;10980;49.596;6.142;2023-03-21T15:26:19;10.52;;;3.40;;
21636;SDS011;10980;49.596;6.142;2023-03-21T15:29:44;7.78;;;3.55;;
21636;SDS011;10980;49.596;6.142;2023-03-21T15:33:08;8.10;;;3.65;;
21636;SDS011;10980;49.596;6.142;2023-03-21T15:36:35;7.90;;;3.20;;
21636;SDS011;10980;49.596;6.142;2023-03-21T15:40:27;7.32;;;3.10;;
21636;SDS011;10980;49.596;6.142;2023-03-21T15:51:19;7.00;;;3.03;;
21636;SDS011;10980;49.596;6.142;2023-03-21T15:54:45;8.68;;;2.92;;
21636;SDS011;10980;49.596;6.142;2023-03-21T15:58:20;8.00;;;2.75;;
21636;SDS011;10980;49.596;6.142;2023-03-21T16:01:47;5.28;;;2.20;;
21636;SDS011;10980;49.596;6.142;2023-03-21T16:12:34;20.55;;;2.65;;
21636;SDS011;10980;49.596;6.142;2023-03-21T16:15:56;3.72;;;2.25;;
21636;SDS011;10980;49.596;6.142;2023-03-21T16:19:19;5.18;;;1.85;;
21636;SDS011;10980;49.596;6.142;2023-03-21T16:22:44;12.88;;;2.28;;
21636;SDS011;10980;49.596;6.142;2023-03-21T16:26:17;8.30;;;2.70;;
21636;SDS011;10980;49.596;6.142;2023-03-21T16:29:45;6.15;;;1.90;;
21636;SDS011;10980;49.596;6.142;2023-03-21T16:33:12;6.85;;;2.38;;
21636;SDS011;10980;49.596;6.142;2023-03-21T16:36:42;6.70;;;2.58;;
21636;SDS011;10980;49.596;6.142;2023-03-21T16:44:00;10.82;;;3.13;;
21636;SDS011;10980;49.596;6.142;2023-03-21T16:47:36;3.58;;;2.00;;
21636;SDS011;10980;49.596;6.142;2023-03-21T16:50:59;5.40;;;2.22;;
21636;SDS011;10980;49.596;6.142;2023-03-21T16:54:21;5.47;;;1.92;;
21636;SDS011;10980;49.596;6.142;2023-03-21T17:01:15;5.95;;;2.03;;
21636;SDS011;10980;49.596;6.142;2023-03-21T17:04:40;3.88;;;2.22;;
21636;SDS011;10980;49.596;6.142;2023-03-21T17:08:11;4.07;;;1.75;;
21636;SDS011;10980;49.596;6.142;2023-03-21T17:11:41;5.32;;;2.00;;
21636;SDS011;10980;49.596;6.142;2023-03-21T17:15:07;9.30;;;2.92;;
21636;SDS011;10980;49.596;6.142;2023-03-21T17:18:36;4.82;;;2.30;;
21636;SDS011;10980;49.596;6.142;2023-03-21T17:22:05;3.22;;;1.88;;
21636;SDS011;10980;49.596;6.142;2023-03-21T17:25:29;6.85;;;1.90;;
21636;SDS011;10980;49.596;6.142;2023-03-21T17:28:52;7.13;;;2.05;;
21636;SDS011;10980;49.596;6.142;2023-03-21T17:32:20;4.75;;;2.25;;
21636;SDS011;10980;49.596;6.142;2023-03-21T17:35:42;7.38;;;2.80;;
21636;SDS011;10980;49.596;6.142;2023-03-21T17:39:07;4.15;;;2.25;;
21636;SDS011;10980;49.596;6.142;2023-03-21T17:42:36;6.45;;;2.60;;
21636;SDS011;10980;49.596;6.142;2023-03-21T17:46:04;4.85;;;2.50;;
21636;SDS011;10980;49.596;6.142;2023-03-21T17:49:31;6.50;;;3.17;;
21636;SDS011;10980;49.596;6.142;2023-03-21T17:52:53;8.55;;;3.38;;
21636;SDS011;10980;49.596;6.142;2023-03-21T17:56:21;5.13;;;2.55;;
21636;SDS011;10980;49.596;6.142;2023-03-21T17:59:50;9.85;;;3.67;;
21636;SDS011;10980;49.596;6.142;2023-03-21T18:03:14;12.18;;;4.05;;
21636;SDS011;10980;49.596;6.142;2023-03-21T18:06:41;4.43;;;2.10;;
21636;SDS011;10980;49.596;6.142;2023-03-21T18:10:25;7.30;;;2.72;;
21636;SDS011;10980;49.596;6.142;2023-03-21T18:13:51;5.97;;;2.03;;
21636;SDS011;10980;49.596;6.142;2023-03-21T18:17:31;3.95;;;1.70;;
21636;SDS011;10980;49.596;6.142;2023-03-21T18:20:53;8.43;;;2.05;;
21636;SDS011;10980;49.596;6.142;2023-03-21T18:24:26;6.80;;;2.50;;
21636;SDS011;10980;49.596;6.142;2023-03-21T18:27:49;6.63;;;2.30;;
21636;SDS011;10980;49.596;6.142;2023-03-21T18:31:31;7.47;;;2.42;;
21636;SDS011;10980;49.596;6.142;2023-03-21T18:34:53;6.50;;;2.08;;
21636;SDS011;10980;49.596;6.142;2023-03-21T18:38:15;8.27;;;2.72;;
21636;SDS011;10980;49.596;6.142;2023-03-21T18:41:38;8.68;;;2.53;;
21636;SDS011;10980;49.596;6.142;2023-03-21T18:45:00;8.68;;;2.25;;
21636;SDS011;10980;49.596;6.142;2023-03-21T18:48:22;10.23;;;1.83;;
21636;SDS011;10980;49.596;6.142;2023-03-21T18:51:55;7.22;;;2.08;;
21636;SDS011;10980;49.596;6.142;2023-03-21T18:55:18;6.20;;;2.20;;
21636;SDS011;10980;49.596;6.142;2023-03-21T18:58:44;5.25;;;2.03;;
21636;SDS011;10980;49.596;6.142;2023-03-21T19:02:06;7.65;;;2.33;;
21636;SDS011;10980;49.596;6.142;2023-03-21T19:05:28;7.45;;;2.13;;
21636;SDS011;10980;49.596;6.142;2023-03-21T19:08:50;7.72;;;2.20;;
21636;SDS011;10980;49.596;6.142;2023-03-21T19:12:13;41.15;;;30.85;;
21636;SDS011;10980;49.596;6.142;2023-03-21T19:15:37;10.43;;;3.53;;
21636;SDS011;10980;49.596;6.142;2023-03-21T19:19:02;13.07;;;10.82;;
21636;SDS011;10980;49.596;6.142;2023-03-21T19:22:26;33.72;;;19.67;;
21636;SDS011;10980;49.596;6.142;2023-03-21T19:25:49;475.70;;;409.30;;
21636;SDS011;10980;49.596;6.142;2023-03-21T19:29:12;1916.75;;;999.90;;
21636;SDS011;10980;49.596;6.142;2023-03-21T19:32:46;1999.90;;;999.90;;
21636;SDS011;10980;49.596;6.142;2023-03-21T19:36:17;1642.22;;;783.85;;
21636;SDS011;10980;49.596;6.142;2023-03-21T19:39:49;1999.90;;;546.22;;
21636;SDS011;10980;49.596;6.142;2023-03-21T19:43:17;1011.33;;;256.77;;
21636;SDS011;10980;49.596;6.142;2023-03-21T19:47:07;35.28;;;16.90;;
21636;SDS011;10980;49.596;6.142;2023-03-21T19:50:37;102.30;;;33.30;;
21636;SDS011;10980;49.596;6.142;2023-03-21T19:54:21;4.45;;;2.72;;
21636;SDS011;10980;49.596;6.142;2023-03-21T19:57:44;9.93;;;3.15;;
21636;SDS011;10980;49.596;6.142;2023-03-21T20:01:09;6.18;;;3.17;;
21636;SDS011;10980;49.596;6.142;2023-03-21T20:04:34;5.72;;;2.80;;
21636;SDS011;10980;49.596;6.142;2023-03-21T20:07:59;7.88;;;3.30;;
21636;SDS011;10980;49.596;6.142;2023-03-21T20:11:21;12.00;;;3.25;;
21636;SDS011;10980;49.596;6.142;2023-03-21T20:14:44;6.73;;;3.60;;
21636;SDS011;10980;49.596;6.142;2023-03-21T20:18:10;7.00;;;2.92;;
21636;SDS011;10980;49.596;6.142;2023-03-21T20:21:32;8.80;;;3.40;;
21636;SDS011;10980;49.596;6.142;2023-03-21T20:25:08;10.55;;;3.08;;
21636;SDS011;10980;49.596;6.142;2023-03-21T20:28:32;10.57;;;3.75;;
21636;SDS011;10980;49.596;6.142;2023-03-21T20:31:56;7.63;;;3.45;;
21636;SDS011;10980;49.596;6.142;2023-03-21T20:35:18;10.25;;;3.80;;
21636;SDS011;10980;49.596;6.142;2023-03-21T20:39:01;5.88;;;3.53;;
21636;SDS011;10980;49.596;6.142;2023-03-21T20:42:23;9.10;;;3.47;;
21636;SDS011;10980;49.596;6.142;2023-03-21T20:45:45;9.50;;;3.40;;
21636;SDS011;10980;49.596;6.142;2023-03-21T20:49:07;11.35;;;3.70;;
21636;SDS011;10980;49.596;6.142;2023-03-21T20:52:29;17.67;;;3.95;;
21636;SDS011;10980;49.596;6.142;2023-03-21T20:56:11;11.27;;;4.10;;
21636;SDS011;10980;49.596;6.142;2023-03-21T20:59:34;6.40;;;3.65;;
21636;SDS011;10980;49.596;6.142;2023-03-21T21:02:58;11.18;;;4.10;;
21636;SDS011;10980;49.596;6.142;2023-03-21T21:06:21;7.30;;;3.60;;
21636;SDS011;10980;49.596;6.142;2023-03-21T21:09:43;10.05;;;4.07;;
21636;SDS011;10980;49.596;6.142;2023-03-21T21:13:06;10.82;;;4.90;;
21636;SDS011;10980;49.596;6.142;2023-03-21T21:16:28;14.47;;;5.20;;
21636;SDS011;10980;49.596;6.142;2023-03-21T21:19:50;9.73;;;5.27;;
21636;SDS011;10980;49.596;6.142;2023-03-21T21:23:12;16.33;;;6.10;;
21636;SDS011;10980;49.596;6.142;2023-03-21T21:26:41;11.27;;;4.97;;
21636;SDS011;10980;49.596;6.142;2023-03-21T21:30:06;13.57;;;6.57;;
21636;SDS011;10980;49.596;6.142;2023-03-21T21:33:32;11.90;;;5.90;;
21636;SDS011;10980;49.596;6.142;2023-03-21T21:36:58;10.20;;;5.53;;
21636;SDS011;10980;49.596;6.142;2023-03-21T21:40:20;15.50;;;6.67;;
21636;SDS011;10980;49.596;6.142;2023-03-21T21:43:44;16.10;;;6.23;;
21636;SDS011;10980;49.596;6.142;2023-03-21T21:47:09;15.50;;;6.53;;
21636;SDS011;10980;49.596;6.142;2023-03-21T21:50:32;13.57;;;6.30;;
21636;SDS011;10980;49.596;6.142;2023-03-21T21:54:00;12.30;;;6.47;;
21636;SDS011;10980;49.596;6.142;2023-03-21T21:57:32;18.33;;;6.87;;
21636;SDS011;10980;49.596;6.142;2023-03-21T22:00:58;18.40;;;7.47;;
21636;SDS011;10980;49.596;6.142;2023-03-21T22:04:22;18.63;;;7.23;;
21636;SDS011;10980;49.596;6.142;2023-03-21T22:07:48;12.10;;;6.83;;
21636;SDS011;10980;49.596;6.142;2023-03-21T22:11:13;19.33;;;8.17;;
21636;SDS011;10980;49.596;6.142;2023-03-21T22:14:36;17.17;;;7.17;;
21636;SDS011;10980;49.596;6.142;2023-03-21T22:17:58;16.43;;;7.63;;
21636;SDS011;10980;49.596;6.142;2023-03-21T22:21:19;19.00;;;8.67;;
21636;SDS011;10980;49.596;6.142;2023-03-21T22:24:41;17.63;;;8.63;;
21636;SDS011;10980;49.596;6.142;2023-03-21T22:28:03;17.13;;;8.30;;
21636;SDS011;10980;49.596;6.142;2023-03-21T22:31:25;20.17;;;8.33;;
21636;SDS011;10980;49.596;6.142;2023-03-21T22:34:47;16.93;;;8.23;;
21636;SDS011;10980;49.596;6.142;2023-03-21T22:38:09;17.50;;;7.47;;
21636;SDS011;10980;49.596;6.142;2023-03-21T22:41:31;16.57;;;7.67;;
21636;SDS011;10980;49.596;6.142;2023-03-21T22:48:33;15.47;;;7.40;;
21636;SDS011;10980;49.596;6.142;2023-03-21T22:51:55;13.00;;;6.80;;
21636;SDS011;10980;49.596;6.142;2023-03-21T22:55:23;17.77;;;7.00;;
21636;SDS011;10980;49.596;6.142;2023-03-21T22:58:46;16.90;;;7.60;;